createdAt,value
2018-12-08T00:00:45.352Z,3.50
2018-12-08T00:03:13.855Z,3.37
2018-12-08T00:05:42.117Z,3.03
2018-12-08T00:08:10.482Z,3.50
2018-12-08T00:10:39.001Z,3.10
2018-12-08T00:13:07.364Z,2.90
2018-12-08T00:15:35.595Z,3.43
2018-12-08T00:18:03.999Z,3.50
2018-12-08T00:20:32.419Z,2.90
2018-12-08T00:23:00.633Z,2.90
2018-12-08T00:25:28.975Z,2.80
2018-12-08T00:27:57.208Z,3.37
2018-12-08T00:30:31.079Z,3.03
2018-12-08T00:32:59.440Z,3.30
2018-12-08T00:35:27.664Z,3.00
2018-12-08T00:37:56.103Z,3.60
2018-12-08T00:40:24.372Z,3.73
2018-12-08T00:42:52.740Z,3.50
2018-12-08T00:45:21.090Z,4.60
2018-12-08T00:47:49.291Z,4.00
2018-12-08T00:50:17.723Z,3.42
2018-12-08T00:52:46.319Z,3.93
2018-12-08T00:55:14.534Z,3.10
2018-12-08T00:57:42.951Z,3.70
2018-12-08T01:00:11.387Z,4.47
2018-12-08T01:02:39.619Z,3.50
2018-12-08T01:05:07.968Z,4.20
2018-12-08T01:07:36.167Z,4.10
2018-12-08T01:10:04.642Z,3.90
2018-12-08T01:12:32.891Z,4.50
2018-12-08T01:15:02.000Z,4.47
2018-12-08T01:17:30.207Z,4.17
2018-12-08T01:19:58.525Z,3.60
2018-12-08T01:22:26.874Z,3.83
2018-12-08T01:24:55.162Z,3.87
2018-12-08T01:27:23.394Z,4.07
2018-12-08T01:29:51.792Z,3.97
2018-12-08T01:32:19.984Z,4.00
2018-12-08T01:34:48.175Z,4.00
2018-12-08T01:37:16.598Z,3.20
2018-12-08T01:39:44.877Z,3.37
2018-12-08T01:42:13.322Z,3.50
2018-12-08T01:44:41.547Z,3.43
2018-12-08T01:47:09.807Z,3.67
2018-12-08T01:49:37.972Z,4.00
2018-12-08T01:52:06.300Z,3.73
2018-12-08T01:54:34.821Z,3.53
2018-12-08T01:57:03.149Z,3.93
2018-12-08T01:59:31.533Z,3.80
2018-12-08T02:02:00.094Z,3.90
2018-12-08T02:04:28.285Z,2.87
2018-12-08T02:06:56.511Z,3.10
2018-12-08T02:09:24.675Z,3.07
2018-12-08T02:11:52.917Z,2.73
2018-12-08T02:14:21.188Z,3.03
2018-12-08T02:16:49.410Z,2.63
2018-12-08T02:19:17.763Z,2.33
2018-12-08T02:21:46.001Z,2.63
2018-12-08T02:24:14.232Z,2.90
2018-12-08T02:26:42.668Z,2.23
2018-12-08T02:29:10.882Z,2.70
2018-12-08T02:31:39.123Z,2.57
2018-12-08T02:34:07.498Z,2.93
2018-12-08T02:36:35.710Z,3.10
2018-12-08T02:39:06.117Z,2.73
2018-12-08T02:41:34.331Z,3.07
2018-12-08T02:44:02.628Z,2.33
2018-12-08T02:46:30.969Z,3.20
2018-12-08T02:48:59.222Z,3.27
2018-12-08T02:51:27.552Z,2.80
2018-12-08T02:53:55.761Z,2.33
2018-12-08T02:56:23.965Z,2.60
2018-12-08T02:58:52.275Z,2.40
2018-12-08T03:01:20.706Z,2.30
2018-12-08T03:03:49.073Z,2.87
2018-12-08T03:06:17.567Z,2.27
2018-12-08T03:08:45.789Z,2.40
2018-12-08T03:11:14.105Z,2.03
2018-12-08T03:13:42.478Z,2.30
2018-12-08T03:16:10.738Z,3.10
2018-12-08T03:18:38.944Z,2.73
2018-12-08T03:21:07.204Z,3.33
2018-12-08T03:23:35.393Z,2.70
2018-12-08T03:26:04.327Z,2.73
2018-12-08T03:28:32.510Z,2.97
2018-12-08T03:31:00.918Z,3.10
2018-12-08T03:33:29.293Z,2.97
2018-12-08T03:35:57.781Z,2.77
2018-12-08T03:38:26.151Z,2.30
2018-12-08T03:40:54.397Z,2.80
2018-12-08T03:43:22.741Z,2.75
2018-12-08T03:45:50.922Z,2.83
2018-12-08T03:48:19.258Z,2.90
2018-12-08T03:50:47.450Z,2.10
2018-12-08T03:53:15.847Z,2.70
2018-12-08T03:55:45.014Z,3.00
2018-12-08T03:58:13.376Z,2.33
2018-12-08T04:00:41.632Z,2.77
2018-12-08T04:03:10.117Z,3.07
2018-12-08T04:05:38.429Z,2.97
2018-12-08T04:08:07.008Z,3.27
2018-12-08T04:10:35.447Z,3.17
2018-12-08T04:13:03.814Z,3.40
2018-12-08T04:15:32.397Z,3.10
2018-12-08T04:18:00.867Z,3.83
2018-12-08T04:20:29.097Z,3.20
2018-12-08T04:22:57.261Z,3.50
2018-12-08T04:25:25.713Z,3.27
2018-12-08T04:27:54.323Z,3.50
2018-12-08T04:30:22.593Z,3.60
2018-12-08T04:32:51.065Z,3.27
2018-12-08T04:35:19.529Z,3.53
2018-12-08T04:37:47.818Z,3.43
2018-12-08T04:40:16.040Z,3.17
2018-12-08T04:42:44.233Z,3.13
2018-12-08T04:45:13.557Z,3.03
2018-12-08T04:47:41.991Z,3.10
2018-12-08T04:50:10.429Z,2.83
2018-12-08T04:52:38.805Z,3.03
2018-12-08T04:55:07.232Z,3.07
2018-12-08T04:57:35.455Z,2.73
2018-12-08T05:00:04.316Z,3.13
2018-12-08T05:02:32.615Z,3.23
2018-12-08T05:05:01.103Z,3.30
2018-12-08T05:07:29.385Z,2.97
2018-12-08T05:09:57.578Z,2.77
2018-12-08T05:12:25.950Z,2.63
2018-12-08T05:14:54.297Z,3.33
2018-12-08T05:17:22.720Z,3.10
2018-12-08T05:19:50.936Z,3.40
2018-12-08T05:22:19.149Z,3.57
2018-12-08T05:24:47.386Z,3.23
2018-12-08T05:27:15.659Z,3.00
2018-12-08T05:29:43.868Z,3.30
2018-12-08T05:32:12.416Z,3.53
2018-12-08T05:34:40.624Z,3.40
2018-12-08T05:37:08.874Z,3.10
2018-12-08T05:39:37.256Z,3.20
2018-12-08T05:42:05.539Z,3.30
2018-12-08T05:44:33.710Z,3.00
2018-12-08T05:47:01.963Z,3.03
2018-12-08T05:49:30.319Z,3.30
2018-12-08T05:51:58.576Z,3.37
2018-12-08T05:54:26.862Z,3.30
2018-12-08T05:56:55.211Z,2.93
2018-12-08T05:59:23.407Z,2.87
2018-12-08T06:01:51.593Z,3.00
2018-12-08T06:04:19.837Z,3.10
2018-12-08T06:06:48.032Z,3.03
2018-12-08T06:09:16.347Z,3.20
2018-12-08T06:11:44.814Z,3.70
2018-12-08T06:14:14.012Z,2.70
2018-12-08T06:16:43.010Z,2.97
2018-12-08T06:19:11.293Z,2.93
2018-12-08T06:21:39.956Z,3.13
2018-12-08T06:24:08.446Z,3.33
2018-12-08T06:26:41.151Z,3.50
2018-12-08T06:29:09.524Z,3.20
2018-12-08T06:31:38.016Z,2.87
2018-12-08T06:34:06.238Z,3.30
2018-12-08T06:36:34.667Z,3.27
2018-12-08T06:39:03.120Z,3.20
2018-12-08T06:41:31.526Z,3.53
2018-12-08T06:43:59.770Z,3.33
2018-12-08T06:46:28.048Z,3.23
2018-12-08T06:48:56.356Z,3.13
2018-12-08T06:51:25.009Z,3.53
2018-12-08T06:53:53.365Z,3.43
2018-12-08T06:56:21.730Z,3.13
2018-12-08T06:58:50.062Z,3.07
2018-12-08T07:01:18.282Z,3.50
2018-12-08T07:03:47.315Z,3.30
2018-12-08T07:06:15.750Z,3.80
2018-12-08T07:08:43.944Z,3.70
2018-12-08T07:11:12.321Z,3.70
2018-12-08T07:13:40.733Z,4.30
2018-12-08T07:16:09.328Z,3.80
2018-12-08T07:18:37.799Z,3.53
2018-12-08T07:21:06.252Z,3.27
2018-12-08T07:23:34.470Z,3.33
2018-12-08T07:26:03.274Z,3.40
2018-12-08T07:28:31.593Z,3.70
2018-12-08T07:30:59.811Z,3.40
2018-12-08T07:33:28.238Z,3.37
2018-12-08T07:35:56.507Z,3.20
2018-12-08T07:38:24.758Z,3.40
2018-12-08T07:40:53.312Z,3.50
2018-12-08T07:43:22.316Z,3.23
2018-12-08T07:45:51.022Z,4.83
2018-12-08T07:48:19.712Z,4.70
2018-12-08T07:50:47.966Z,3.33
2018-12-08T07:53:16.621Z,3.90
2018-12-08T07:55:45.039Z,3.97
2018-12-08T07:58:13.256Z,3.27
2018-12-08T08:00:41.841Z,2.90
2018-12-08T08:03:10.220Z,2.80
2018-12-08T08:05:38.646Z,2.75
2018-12-08T08:08:07.346Z,2.47
2018-12-08T08:10:35.597Z,2.63
2018-12-08T08:13:03.941Z,2.37
2018-12-08T08:15:32.307Z,2.60
2018-12-08T08:18:00.668Z,2.50
2018-12-08T08:20:28.979Z,3.07
2018-12-08T08:22:57.288Z,2.77
2018-12-08T08:25:25.484Z,2.97
2018-12-08T08:27:53.771Z,2.97
2018-12-08T08:30:21.997Z,2.40
2018-12-08T08:32:50.187Z,3.13
2018-12-08T08:35:18.544Z,2.47
2018-12-08T08:37:46.976Z,3.10
2018-12-08T08:40:15.325Z,3.30
2018-12-08T08:42:43.834Z,3.47
2018-12-08T08:45:12.111Z,3.00
2018-12-08T08:47:40.305Z,3.03
2018-12-08T08:50:09.607Z,2.83
2018-12-08T08:52:38.241Z,2.80
2018-12-08T08:55:06.890Z,3.33
2018-12-08T08:57:35.152Z,2.97
2018-12-08T09:00:04.275Z,2.70
2018-12-08T09:02:32.967Z,3.00
2018-12-08T09:05:01.412Z,2.97
2018-12-08T09:07:29.666Z,2.87
2018-12-08T09:09:57.930Z,3.97
2018-12-08T09:12:26.411Z,3.00
2018-12-08T09:14:54.883Z,3.10
2018-12-08T09:17:23.932Z,3.13
2018-12-08T09:19:52.378Z,3.00
2018-12-08T09:22:21.171Z,3.40
2018-12-08T09:24:49.704Z,3.40
2018-12-08T09:27:18.016Z,3.37
2018-12-08T09:29:46.310Z,3.50
2018-12-08T09:32:14.915Z,4.10
2018-12-08T09:34:43.141Z,4.13
2018-12-08T09:37:11.377Z,4.23
2018-12-08T09:39:39.914Z,3.80
2018-12-08T09:42:12.802Z,3.83
2018-12-08T09:44:41.128Z,3.50
2018-12-08T09:47:09.842Z,3.63
2018-12-08T09:49:38.227Z,3.83
2018-12-08T09:52:06.895Z,3.60
2018-12-08T09:54:35.368Z,3.73
2018-12-08T09:57:03.908Z,3.37
2018-12-08T09:59:32.685Z,4.03
2018-12-08T10:02:01.655Z,3.33
2018-12-08T10:04:29.942Z,3.73
2018-12-08T10:06:58.374Z,4.20
2018-12-08T10:09:27.425Z,3.90
2018-12-08T10:11:56.279Z,3.90
2018-12-08T10:14:24.747Z,3.77
2018-12-08T10:16:53.472Z,3.57
2018-12-08T10:19:21.959Z,3.73
2018-12-08T10:21:50.717Z,3.90
2018-12-08T10:24:19.022Z,3.40
2018-12-08T10:26:47.403Z,3.50
2018-12-08T10:29:15.907Z,4.13
2018-12-08T10:31:45.002Z,4.60
2018-12-08T10:34:13.270Z,4.70
2018-12-08T10:36:42.290Z,3.97
2018-12-08T10:39:10.613Z,3.80
2018-12-08T10:41:39.149Z,4.43
2018-12-08T10:44:07.505Z,4.63
2018-12-08T10:46:35.894Z,4.50
2018-12-08T10:49:04.349Z,4.87
2018-12-08T10:51:33.118Z,3.93
2018-12-08T10:54:01.641Z,4.60
2018-12-08T10:56:30.141Z,4.30
2018-12-08T10:58:58.913Z,3.83
2018-12-08T11:01:32.568Z,5.10
2018-12-08T11:04:01.190Z,4.80
2018-12-08T11:06:30.075Z,3.80
2018-12-08T11:08:58.650Z,4.23
2018-12-08T11:11:27.129Z,5.27
2018-12-08T11:13:55.960Z,3.30
2018-12-08T11:16:24.758Z,4.07
2018-12-08T11:18:53.731Z,4.80
2018-12-08T11:21:22.373Z,3.47
2018-12-08T11:23:50.710Z,4.17
2018-12-08T11:26:19.378Z,3.50
2018-12-08T11:28:47.940Z,3.20
2018-12-08T11:31:16.946Z,3.53
2018-12-08T11:33:45.555Z,4.47
2018-12-08T11:36:14.812Z,4.40
2018-12-08T11:38:43.183Z,3.80
2018-12-08T11:41:15.572Z,3.10
2018-12-08T11:43:44.096Z,3.80
2018-12-08T11:46:13.747Z,3.17
2018-12-08T11:48:42.513Z,3.77
2018-12-08T11:51:10.869Z,3.20
2018-12-08T11:53:39.648Z,3.37
2018-12-08T11:56:08.017Z,3.73
2018-12-08T11:58:36.409Z,3.20
2018-12-08T12:01:05.007Z,2.80
2018-12-08T12:03:33.641Z,3.40
2018-12-08T12:06:02.291Z,2.70
2018-12-08T12:08:32.750Z,2.80
2018-12-08T12:11:04.847Z,3.07
2018-12-08T12:13:34.900Z,2.73
2018-12-08T12:16:03.332Z,3.00
2018-12-08T12:18:32.583Z,2.93
2018-12-08T12:21:01.112Z,3.20
2018-12-08T12:23:29.563Z,3.67
2018-12-08T12:25:57.847Z,3.77
2018-12-08T12:28:26.377Z,3.70
2018-12-08T12:30:54.686Z,3.53
2018-12-08T12:33:23.419Z,3.80
2018-12-08T12:35:51.711Z,3.63
2018-12-08T12:38:20.430Z,3.27
2018-12-08T12:40:48.863Z,3.73
2018-12-08T12:43:17.242Z,4.00
2018-12-08T12:45:45.947Z,3.80
2018-12-08T12:48:14.416Z,3.63
2018-12-08T12:50:42.989Z,2.93
2018-12-08T12:53:11.378Z,3.60
2018-12-08T12:55:39.787Z,3.23
2018-12-08T12:58:08.221Z,3.40
2018-12-08T13:00:36.706Z,3.60
2018-12-08T13:03:05.200Z,2.90
2018-12-08T13:05:34.040Z,2.97
2018-12-08T13:08:02.964Z,2.73
2018-12-08T13:10:31.642Z,3.77
2018-12-08T13:13:00.051Z,4.30
2018-12-08T13:15:28.474Z,3.10
2018-12-08T13:17:57.331Z,3.07
2018-12-08T13:20:25.938Z,2.97
2018-12-08T13:22:54.485Z,3.00
2018-12-08T13:25:24.299Z,2.80
2018-12-08T13:27:52.709Z,3.20
2018-12-08T13:30:21.274Z,3.90
2018-12-08T13:32:49.956Z,3.00
2018-12-08T13:35:23.893Z,2.77
2018-12-08T13:37:52.640Z,2.90
2018-12-08T13:40:21.004Z,2.50
2018-12-08T13:42:49.319Z,3.47
2018-12-08T13:45:18.514Z,2.60
2018-12-08T13:47:46.983Z,3.20
2018-12-08T13:50:15.535Z,3.23
2018-12-08T13:52:43.916Z,3.40
2018-12-08T13:55:12.555Z,4.37
2018-12-08T13:57:41.049Z,5.03
2018-12-08T14:00:09.663Z,3.53
2018-12-08T14:02:38.225Z,2.93
2018-12-08T14:05:07.085Z,3.33
2018-12-08T14:07:35.555Z,2.90
2018-12-08T14:10:04.050Z,3.30
2018-12-08T14:12:33.542Z,3.27
2018-12-08T14:15:02.036Z,3.50
2018-12-08T14:17:30.805Z,3.17
2018-12-08T14:20:03.772Z,3.53
2018-12-08T14:22:32.662Z,3.47
2018-12-08T14:25:01.186Z,3.20
2018-12-08T14:27:29.826Z,3.13
2018-12-08T14:29:58.662Z,3.20
2018-12-08T14:32:26.907Z,3.70
2018-12-08T14:34:55.147Z,3.70
2018-12-08T14:37:23.900Z,3.57
2018-12-08T14:39:52.528Z,4.42
2018-12-08T14:42:20.866Z,3.27
2018-12-08T14:44:49.659Z,2.70
2018-12-08T14:47:18.262Z,2.83
2018-12-08T14:49:46.688Z,2.80
2018-12-08T14:52:15.676Z,3.37
2018-12-08T14:54:44.075Z,3.00
2018-12-08T14:57:12.846Z,2.77
2018-12-08T14:59:41.433Z,3.17
2018-12-08T15:02:09.784Z,2.93
2018-12-08T15:04:38.100Z,2.47
2018-12-08T15:07:06.531Z,2.87
2018-12-08T15:09:34.880Z,3.63
2018-12-08T15:12:03.468Z,3.23
2018-12-08T15:14:33.233Z,2.83
2018-12-08T15:17:01.558Z,2.47
2018-12-08T15:19:29.958Z,2.77
2018-12-08T15:21:58.242Z,2.93
2018-12-08T15:24:26.471Z,2.83
2018-12-08T15:26:54.854Z,3.20
2018-12-08T15:29:23.278Z,2.90
2018-12-08T15:31:51.694Z,2.50
2018-12-08T15:34:20.037Z,3.03
2018-12-08T15:36:48.385Z,2.97
2018-12-08T15:39:16.747Z,2.70
2018-12-08T15:41:45.073Z,2.80
2018-12-08T15:44:13.545Z,3.63
2018-12-08T15:46:42.796Z,3.13
2018-12-08T15:49:11.217Z,2.83
2018-12-08T15:51:40.478Z,2.77
2018-12-08T15:54:08.839Z,3.20
2018-12-08T15:56:37.159Z,2.30
2018-12-08T15:59:05.733Z,2.77
2018-12-08T16:01:34.291Z,2.70
2018-12-08T16:04:02.522Z,2.47
2018-12-08T16:06:31.326Z,3.20
2018-12-08T16:08:59.715Z,5.50
2018-12-08T16:11:28.019Z,3.20
2018-12-08T16:13:56.332Z,3.27
2018-12-08T16:16:24.806Z,2.80
2018-12-08T16:18:53.084Z,3.40
2018-12-08T16:21:21.541Z,3.67
2018-12-08T16:23:49.999Z,3.13
2018-12-08T16:26:18.873Z,3.33
2018-12-08T16:28:47.102Z,3.63
2018-12-08T16:31:15.534Z,3.30
2018-12-08T16:33:43.964Z,2.43
2018-12-08T16:36:12.212Z,3.10
2018-12-08T16:38:40.821Z,3.30
2018-12-08T16:41:09.126Z,3.57
2018-12-08T16:43:37.803Z,3.00
2018-12-08T16:46:06.333Z,3.43
2018-12-08T16:48:34.693Z,4.30
2018-12-08T16:51:02.950Z,2.53
2018-12-08T16:53:31.240Z,3.47
2018-12-08T16:56:00.128Z,3.43
2018-12-08T16:58:28.494Z,3.50
2018-12-08T17:00:56.970Z,3.13
2018-12-08T17:03:25.563Z,3.03
2018-12-08T17:05:53.870Z,3.50
2018-12-08T17:08:22.150Z,3.90
2018-12-08T17:10:50.461Z,3.60
2018-12-08T17:13:18.975Z,3.27
2018-12-08T17:15:47.982Z,3.57
2018-12-08T17:18:16.380Z,3.93
2018-12-08T17:20:44.809Z,3.70
2018-12-08T17:23:13.230Z,3.50
2018-12-08T17:25:41.713Z,3.97
2018-12-08T17:28:10.136Z,4.37
2018-12-08T17:30:39.537Z,4.47
2018-12-08T17:33:07.797Z,4.03
2018-12-08T17:35:36.335Z,3.73
2018-12-08T17:38:04.611Z,3.23
2018-12-08T17:40:33.002Z,4.10
2018-12-08T17:43:01.273Z,3.60
2018-12-08T17:45:29.720Z,4.63
2018-12-08T17:47:58.166Z,3.90
2018-12-08T17:50:26.938Z,4.03
2018-12-08T17:52:55.169Z,4.27
2018-12-08T17:55:23.490Z,4.23
2018-12-08T17:57:51.936Z,3.87
2018-12-08T18:00:20.371Z,4.30
2018-12-08T18:02:48.874Z,4.37
2018-12-08T18:05:17.576Z,4.23
2018-12-08T18:07:46.003Z,4.23
2018-12-08T18:10:14.485Z,4.90
2018-12-08T18:12:42.914Z,4.50
2018-12-08T18:15:11.371Z,5.20
2018-12-08T18:17:40.483Z,4.47
2018-12-08T18:20:08.936Z,5.20
2018-12-08T18:22:37.537Z,5.27
2018-12-08T18:27:42.627Z,4.90
2018-12-08T18:30:10.928Z,4.03
2018-12-08T18:32:39.852Z,4.30
2018-12-08T18:35:08.407Z,4.57
2018-12-08T18:37:36.664Z,4.67
2018-12-08T18:40:05.503Z,5.60
2018-12-08T18:42:33.780Z,5.07
2018-12-08T18:45:02.340Z,6.17
2018-12-08T18:47:31.724Z,5.73
2018-12-08T18:50:00.210Z,5.80
2018-12-08T18:52:28.535Z,6.03
2018-12-08T18:54:57.094Z,5.53
2018-12-08T18:57:25.602Z,6.40
2018-12-08T18:59:54.177Z,6.30
2018-12-08T19:02:22.771Z,6.00
2018-12-08T19:04:51.354Z,6.47
2018-12-08T19:07:19.741Z,6.00
2018-12-08T19:09:48.091Z,7.00
2018-12-08T19:12:16.573Z,6.07
2018-12-08T19:14:44.832Z,6.13
2018-12-08T19:17:13.544Z,6.30
2018-12-08T19:19:42.088Z,6.63
2018-12-08T19:22:10.419Z,6.63
2018-12-08T19:24:38.690Z,7.63
2018-12-08T19:27:07.133Z,6.73
2018-12-08T19:29:35.897Z,6.57
2018-12-08T19:32:04.387Z,6.30
2018-12-08T19:34:32.724Z,5.57
2018-12-08T19:37:01.772Z,5.73
2018-12-08T19:39:30.161Z,5.40
2018-12-08T19:41:58.443Z,5.30
2018-12-08T19:44:26.710Z,5.60
2018-12-08T19:46:55.074Z,5.10
2018-12-08T19:49:23.466Z,4.80
2018-12-08T19:51:51.788Z,5.10
2018-12-08T19:54:20.127Z,5.10
2018-12-08T19:56:48.347Z,4.97
2018-12-08T19:59:16.549Z,5.03
2018-12-08T20:01:44.964Z,4.80
2018-12-08T20:04:13.382Z,5.23
2018-12-08T20:06:41.673Z,5.17
2018-12-08T20:09:09.983Z,5.07
2018-12-08T20:11:38.639Z,4.53
2018-12-08T20:14:07.067Z,4.43
2018-12-08T20:16:35.779Z,4.00
2018-12-08T20:19:04.118Z,4.10
2018-12-08T20:21:32.819Z,4.43
2018-12-08T20:24:01.641Z,4.43
2018-12-08T20:26:30.151Z,4.43
2018-12-08T20:28:58.734Z,3.80
2018-12-08T20:31:27.186Z,3.50
2018-12-08T20:33:55.936Z,3.70
2018-12-08T20:36:24.247Z,3.47
2018-12-08T20:38:52.516Z,3.47
2018-12-08T20:41:21.108Z,3.00
2018-12-08T20:43:49.368Z,3.20
2018-12-08T20:46:17.805Z,3.10
2018-12-08T20:48:46.341Z,2.90
2018-12-08T20:51:14.598Z,2.90
2018-12-08T20:53:43.012Z,2.80
2018-12-08T20:56:11.321Z,2.60
2018-12-08T20:58:39.882Z,3.00
2018-12-08T21:01:08.119Z,2.37
2018-12-08T21:03:36.553Z,2.17
2018-12-08T21:06:05.035Z,2.27
2018-12-08T21:08:33.394Z,2.40
2018-12-08T21:11:01.650Z,1.80
2018-12-08T21:13:29.961Z,1.53
2018-12-08T21:15:58.235Z,2.37
2018-12-08T21:18:27.087Z,1.80
2018-12-08T21:20:55.493Z,1.87
2018-12-08T21:23:24.050Z,1.73
2018-12-08T21:25:52.437Z,1.47
2018-12-08T21:28:20.706Z,1.50
2018-12-08T21:30:48.987Z,1.53
2018-12-08T21:33:17.380Z,1.40
2018-12-08T21:35:46.114Z,1.40
2018-12-08T21:38:15.292Z,1.30
2018-12-08T21:40:43.782Z,1.60
2018-12-08T21:43:12.189Z,1.50
2018-12-08T21:45:40.527Z,1.33
2018-12-08T21:48:09.056Z,1.40
2018-12-08T21:50:37.622Z,1.83
2018-12-08T21:53:06.073Z,1.20
2018-12-08T21:55:34.623Z,1.23
2018-12-08T21:58:03.036Z,1.30
2018-12-08T22:00:32.435Z,1.40
2018-12-08T22:03:01.021Z,1.20
2018-12-08T22:05:29.716Z,1.10
2018-12-08T22:07:58.178Z,1.23
2018-12-08T22:10:26.572Z,1.53
2018-12-08T22:12:54.960Z,1.60
2018-12-08T22:15:23.381Z,1.40
2018-12-08T22:17:51.791Z,1.40
2018-12-08T22:20:20.223Z,1.60
2018-12-08T22:22:49.243Z,1.60
2018-12-08T22:25:17.461Z,2.00
2018-12-08T22:27:45.852Z,2.23
2018-12-08T22:30:14.105Z,2.20
2018-12-08T22:32:42.630Z,2.50
2018-12-08T22:35:11.112Z,2.53
2018-12-08T22:37:39.348Z,2.63
2018-12-08T22:40:08.039Z,2.60
2018-12-08T22:42:36.648Z,3.13
2018-12-08T22:45:05.601Z,2.70
2018-12-08T22:47:34.217Z,3.83
2018-12-08T22:50:03.095Z,2.87
2018-12-08T22:52:31.366Z,2.80
2018-12-08T22:55:00.092Z,3.30
2018-12-08T22:57:28.458Z,2.77
2018-12-08T22:59:56.836Z,2.30
2018-12-08T23:02:25.151Z,2.40
2018-12-08T23:04:53.448Z,2.10
2018-12-08T23:07:21.857Z,2.83
2018-12-08T23:09:50.702Z,3.83
2018-12-08T23:12:19.085Z,4.03
2018-12-08T23:14:47.707Z,4.37
2018-12-08T23:17:16.068Z,4.33
2018-12-08T23:19:44.487Z,3.27
2018-12-08T23:22:12.799Z,1.87
2018-12-08T23:24:41.165Z,1.70
2018-12-08T23:27:09.722Z,1.40
2018-12-08T23:29:38.175Z,1.70
2018-12-08T23:32:06.444Z,1.73
2018-12-08T23:34:34.686Z,1.60
2018-12-08T23:37:02.942Z,1.83
2018-12-08T23:39:38.748Z,1.73
2018-12-08T23:42:01.701Z,1.73
2018-12-08T23:44:30.427Z,1.43
2018-12-08T23:46:58.686Z,1.20
2018-12-08T23:49:27.101Z,1.40
2018-12-08T23:51:55.448Z,1.47
2018-12-08T23:54:27.837Z,1.43
2018-12-08T23:56:56.077Z,1.37
2018-12-08T23:59:24.369Z,1.50
